createdAt,value
2023-05-20T00:01:38.920Z,15.20
2023-05-20T00:04:28.334Z,15.20
2023-05-20T00:07:17.734Z,15.20
2023-05-20T00:10:08.334Z,15.10
2023-05-20T00:12:57.671Z,15.10
2023-05-20T00:15:48.440Z,15.10
2023-05-20T00:18:37.849Z,15.00
2023-05-20T00:21:27.388Z,15.00
2023-05-20T00:24:16.746Z,15.00
2023-05-20T00:27:06.563Z,15.00
2023-05-20T00:29:56.006Z,15.00
2023-05-20T00:32:46.994Z,14.90
2023-05-20T00:35:36.665Z,14.90
2023-05-20T00:38:26.051Z,14.90
2023-05-20T00:41:15.640Z,14.90
2023-05-20T00:44:04.939Z,14.80
2023-05-20T00:46:55.389Z,14.80
2023-05-20T00:49:48.775Z,14.80
2023-05-20T00:52:41.630Z,14.80
2023-05-20T00:55:31.108Z,14.70
2023-05-20T00:58:20.521Z,14.70
2023-05-20T01:01:09.956Z,14.70
2023-05-20T01:03:59.813Z,14.70
2023-05-20T01:06:50.812Z,14.70
2023-05-20T01:09:40.190Z,14.70
2023-05-20T01:12:34.336Z,14.70
2023-05-20T01:15:28.585Z,14.80
2023-05-20T01:18:20.516Z,14.80
2023-05-20T01:21:12.725Z,14.80
2023-05-20T01:24:05.805Z,14.80
2023-05-20T01:26:58.237Z,14.80
2023-05-20T01:29:50.590Z,14.80
2023-05-20T01:32:44.261Z,14.80
2023-05-20T01:35:34.012Z,14.80
2023-05-20T01:38:25.202Z,14.80
2023-05-20T01:41:16.785Z,14.80
2023-05-20T01:44:06.612Z,14.80
2023-05-20T01:46:56.099Z,14.70
2023-05-20T01:49:46.373Z,14.70
2023-05-20T01:52:36.337Z,14.60
2023-05-20T01:55:26.029Z,14.60
2023-05-20T01:58:16.771Z,14.60
2023-05-20T02:01:06.230Z,14.60
2023-05-20T02:03:55.630Z,14.50
2023-05-20T02:06:45.900Z,14.50
2023-05-20T02:09:35.226Z,14.40
2023-05-20T02:12:24.619Z,14.40
2023-05-20T02:15:15.533Z,14.40
2023-05-20T02:18:05.728Z,14.30
2023-05-20T02:20:55.252Z,14.30
2023-05-20T02:23:45.219Z,14.30
2023-05-20T02:26:34.835Z,14.30
2023-05-20T02:29:24.169Z,14.30
2023-05-20T02:32:14.958Z,14.20
2023-05-20T02:35:04.581Z,14.20
2023-05-20T02:37:54.191Z,14.10
2023-05-20T02:40:45.981Z,14.00
2023-05-20T02:43:36.465Z,14.00
2023-05-20T02:46:25.883Z,13.90
2023-05-20T02:49:16.699Z,13.90
2023-05-20T02:52:06.823Z,13.80
2023-05-20T02:54:56.509Z,13.80
2023-05-20T02:57:46.737Z,13.70
2023-05-20T03:00:41.075Z,13.70
2023-05-20T03:03:30.926Z,13.60
2023-05-20T03:06:21.694Z,13.60
2023-05-20T03:09:12.403Z,13.60
2023-05-20T03:12:02.403Z,13.70
2023-05-20T03:14:55.300Z,13.60
2023-05-20T03:17:45.450Z,13.60
2023-05-20T03:20:36.884Z,13.60
2023-05-20T03:23:27.736Z,13.60
2023-05-20T03:26:17.109Z,13.60
2023-05-20T03:29:07.664Z,13.60
2023-05-20T03:31:57.107Z,13.60
2023-05-20T03:34:46.728Z,13.60
2023-05-20T03:37:36.467Z,13.60
2023-05-20T03:40:27.465Z,13.60
2023-05-20T03:43:17.202Z,13.60
2023-05-20T03:46:07.181Z,13.70
2023-05-20T03:48:58.120Z,13.70
2023-05-20T03:51:47.546Z,13.70
2023-05-20T03:54:37.877Z,13.70
2023-05-20T03:57:30.537Z,13.80
2023-05-20T04:00:19.928Z,13.80
2023-05-20T04:03:11.699Z,13.80
2023-05-20T04:06:01.735Z,13.90
2023-05-20T04:08:52.938Z,13.80
2023-05-20T04:11:43.582Z,13.80
2023-05-20T04:14:35.848Z,13.90
2023-05-20T04:17:25.255Z,13.90
2023-05-20T04:20:15.288Z,13.90
2023-05-20T04:23:05.723Z,14.00
2023-05-20T04:25:55.192Z,14.00
2023-05-20T04:28:48.747Z,14.00
2023-05-20T04:31:39.607Z,14.00
2023-05-20T04:34:34.673Z,14.10
2023-05-20T04:37:24.119Z,14.10
2023-05-20T04:40:14.984Z,14.10
2023-05-20T04:43:05.065Z,14.10
2023-05-20T04:45:54.596Z,14.10
2023-05-20T04:48:45.603Z,14.20
2023-05-20T04:51:36.028Z,14.20
2023-05-20T04:54:25.506Z,14.20
2023-05-20T04:57:14.893Z,14.30
2023-05-20T05:00:07.640Z,14.30
2023-05-20T05:02:57.599Z,14.30
2023-05-20T05:05:48.556Z,14.30
2023-05-20T05:08:37.990Z,14.30
2023-05-20T05:11:27.497Z,14.30
2023-05-20T05:14:17.130Z,14.30
2023-05-20T05:17:06.688Z,14.30
2023-05-20T05:19:56.464Z,14.40
2023-05-20T05:22:47.467Z,14.40
2023-05-20T05:25:36.970Z,14.50
2023-05-20T05:28:26.790Z,14.50
2023-05-20T05:31:16.279Z,14.60
2023-05-20T05:34:05.756Z,14.70
2023-05-20T05:36:55.575Z,14.80
2023-05-20T05:39:46.489Z,14.90
2023-05-20T05:42:36.008Z,15.10
2023-05-20T05:45:25.357Z,15.10
2023-05-20T05:48:14.928Z,15.20
2023-05-20T05:51:06.176Z,15.30
2023-05-20T05:53:56.421Z,15.20
2023-05-20T05:56:47.285Z,15.30
2023-05-20T05:59:36.772Z,15.30
2023-05-20T06:02:26.430Z,15.30
2023-05-20T06:05:16.512Z,15.40
2023-05-20T06:08:07.819Z,15.40
2023-05-20T06:10:58.957Z,15.40
2023-05-20T06:13:50.060Z,15.50
2023-05-20T06:16:39.938Z,15.60
2023-05-20T06:19:30.380Z,15.60
2023-05-20T06:22:19.860Z,15.70
2023-05-20T06:25:11.577Z,15.80
2023-05-20T06:28:01.228Z,15.80
2023-05-20T06:30:53.020Z,15.90
2023-05-20T06:33:42.674Z,16.00
2023-05-20T06:36:35.105Z,16.10
2023-05-20T06:39:25.352Z,16.20
2023-05-20T06:42:14.826Z,16.40
2023-05-20T06:45:11.538Z,16.50
2023-05-20T06:48:24.959Z,16.60
2023-05-20T06:51:14.401Z,16.80
2023-05-20T06:54:04.156Z,16.80
2023-05-20T06:56:53.614Z,16.90
2023-05-20T06:59:44.160Z,17.00
2023-05-20T07:02:35.087Z,17.10
2023-05-20T07:05:27.665Z,17.20
2023-05-20T07:08:17.045Z,17.30
2023-05-20T07:11:06.951Z,17.30
2023-05-20T07:13:56.418Z,17.30
2023-05-20T07:16:47.623Z,17.40
2023-05-20T07:19:37.201Z,17.50
2023-05-20T07:22:28.307Z,17.50
2023-05-20T07:25:22.578Z,17.50
2023-05-20T07:28:12.610Z,17.50
2023-05-20T07:31:02.059Z,17.60
2023-05-20T07:33:53.208Z,17.60
2023-05-20T07:36:43.749Z,17.60
2023-05-20T07:39:34.542Z,17.60
2023-05-20T07:42:24.000Z,17.60
2023-05-20T07:45:18.052Z,17.70
2023-05-20T07:48:08.795Z,17.80
2023-05-20T07:50:59.313Z,18.00
2023-05-20T07:53:50.076Z,18.10
2023-05-20T07:56:41.172Z,18.30
2023-05-20T07:59:32.749Z,18.50
2023-05-20T08:02:22.493Z,18.70
2023-05-20T08:05:13.053Z,18.90
2023-05-20T08:08:02.394Z,19.30
2023-05-20T08:10:58.595Z,19.60
2023-05-20T08:13:51.017Z,19.90
2023-05-20T08:16:40.624Z,20.30
2023-05-20T08:19:30.520Z,20.60
2023-05-20T08:22:20.012Z,21.10
2023-05-20T08:25:11.105Z,21.50
2023-05-20T08:28:05.634Z,21.90
2023-05-20T08:30:59.273Z,22.30
2023-05-20T08:33:49.077Z,22.80
2023-05-20T08:36:38.507Z,23.30
2023-05-20T08:39:28.495Z,23.90
2023-05-20T08:42:23.930Z,24.40
2023-05-20T08:45:21.688Z,24.90
2023-05-20T08:48:13.432Z,25.40
2023-05-20T08:51:05.220Z,25.90
2023-05-20T08:53:54.813Z,26.40
2023-05-20T08:56:45.941Z,26.90
2023-05-20T08:59:35.752Z,27.40
2023-05-20T09:02:25.235Z,27.80
2023-05-20T09:05:16.594Z,28.20
2023-05-20T09:08:08.077Z,28.70
2023-05-20T09:10:57.575Z,29.00
2023-05-20T09:13:46.992Z,29.50
2023-05-20T09:16:36.972Z,29.90
2023-05-20T09:19:26.698Z,30.50
2023-05-20T09:22:25.030Z,31.00
2023-05-20T09:25:15.994Z,31.50
2023-05-20T09:28:07.505Z,31.80
2023-05-20T09:31:00.117Z,32.00
2023-05-20T09:33:52.321Z,32.20
2023-05-20T09:36:44.406Z,32.30
2023-05-20T09:39:48.500Z,32.40
2023-05-20T09:42:43.954Z,32.60
2023-05-20T09:45:33.984Z,32.70
2023-05-20T09:48:25.241Z,32.70
2023-05-20T09:51:16.079Z,32.80
2023-05-20T09:54:07.355Z,33.00
2023-05-20T09:57:01.222Z,33.20
2023-05-20T09:59:52.881Z,33.40
2023-05-20T10:02:45.317Z,33.40
2023-05-20T10:05:40.356Z,33.60
2023-05-20T10:08:47.117Z,33.70
2023-05-20T10:11:44.494Z,33.70
2023-05-20T10:14:54.723Z,33.60
2023-05-20T10:17:53.532Z,33.60
2023-05-20T10:20:50.104Z,33.40
2023-05-20T10:23:39.610Z,33.40
2023-05-20T10:26:38.085Z,33.40
2023-05-20T10:29:27.632Z,33.40
2023-05-20T10:32:28.266Z,33.40
2023-05-20T10:35:26.368Z,33.50
2023-05-20T10:38:16.059Z,33.50
2023-05-20T10:41:12.189Z,33.50
2023-05-20T10:44:03.608Z,33.30
2023-05-20T10:49:58.152Z,32.80
2023-05-20T10:52:47.854Z,32.60
2023-05-20T10:55:39.394Z,32.40
2023-05-20T10:58:29.679Z,32.20
2023-05-20T11:01:20.070Z,32.00
2023-05-20T11:04:09.993Z,31.80
2023-05-20T11:07:01.273Z,31.70
2023-05-20T11:09:51.693Z,31.70
2023-05-20T11:12:41.532Z,31.60
2023-05-20T11:15:33.513Z,31.40
2023-05-20T11:18:22.846Z,31.00
2023-05-20T11:21:12.466Z,30.70
2023-05-20T11:24:03.294Z,30.40
2023-05-20T11:26:52.811Z,30.10
2023-05-20T11:29:42.360Z,29.80
2023-05-20T11:32:32.351Z,29.50
2023-05-20T11:35:24.562Z,29.10
2023-05-20T11:38:13.990Z,28.70
2023-05-20T11:41:04.753Z,28.30
2023-05-20T11:43:59.368Z,27.90
2023-05-20T11:46:49.715Z,27.60
2023-05-20T11:49:41.832Z,27.30
2023-05-20T11:52:31.450Z,27.10
2023-05-20T11:55:21.059Z,26.90
2023-05-20T11:58:11.816Z,26.80
2023-05-20T12:01:09.626Z,26.60
2023-05-20T12:04:11.383Z,26.50
2023-05-20T12:07:01.192Z,26.30
2023-05-20T12:09:50.525Z,26.20
2023-05-20T12:12:40.079Z,26.10
2023-05-20T12:15:31.163Z,26.10
2023-05-20T12:18:20.579Z,26.00
2023-05-20T12:21:10.337Z,26.00
2023-05-20T12:24:00.428Z,25.90
2023-05-20T12:26:50.015Z,25.90
2023-05-20T12:29:39.572Z,25.80
2023-05-20T12:32:30.566Z,25.80
2023-05-20T12:35:26.775Z,25.70
2023-05-20T12:38:16.224Z,25.70
2023-05-20T12:41:05.697Z,25.70
2023-05-20T12:43:55.477Z,25.60
2023-05-20T12:46:45.063Z,25.60
2023-05-20T12:49:35.951Z,25.60
2023-05-20T12:52:25.543Z,25.60
2023-05-20T12:55:15.180Z,25.60
2023-05-20T12:58:04.715Z,25.60
2023-05-20T13:00:54.251Z,25.60
2023-05-20T13:03:43.800Z,25.60
2023-05-20T13:06:35.833Z,25.60
2023-05-20T13:09:25.457Z,25.50
2023-05-20T13:12:15.601Z,25.60
2023-05-20T13:15:06.198Z,25.50
2023-05-20T13:17:56.056Z,25.60
2023-05-20T13:20:45.858Z,25.60
2023-05-20T13:23:37.094Z,25.60
2023-05-20T13:26:26.553Z,25.60
2023-05-20T13:29:16.270Z,25.60
2023-05-20T13:32:06.318Z,25.60
2023-05-20T13:34:57.024Z,25.60
2023-05-20T13:37:46.593Z,25.60
2023-05-20T13:40:37.586Z,25.60
2023-05-20T13:43:28.619Z,25.60
2023-05-20T13:46:18.573Z,25.70
2023-05-20T13:49:08.205Z,25.70
2023-05-20T13:51:57.834Z,25.70
2023-05-20T13:54:48.705Z,25.70
2023-05-20T13:57:39.473Z,25.60
2023-05-20T14:00:28.866Z,25.60
2023-05-20T14:03:18.483Z,25.60
2023-05-20T14:06:08.017Z,25.70
2023-05-20T14:08:58.456Z,25.80
2023-05-20T14:11:47.901Z,25.80
2023-05-20T14:14:38.924Z,25.90
2023-05-20T14:17:28.368Z,25.90
2023-05-20T14:20:18.150Z,25.80
2023-05-20T14:23:07.998Z,25.80
2023-05-20T14:25:57.619Z,25.80
2023-05-20T14:28:47.011Z,25.80
2023-05-20T14:31:38.784Z,25.70
2023-05-20T14:34:28.297Z,25.70
2023-05-20T14:37:17.781Z,25.60
2023-05-20T14:40:09.292Z,25.50
2023-05-20T14:42:58.857Z,25.40
2023-05-20T14:45:49.026Z,25.40
2023-05-20T14:48:39.860Z,25.30
2023-05-20T14:51:29.272Z,25.20
2023-05-20T14:54:24.349Z,25.20
2023-05-20T14:57:15.896Z,25.20
2023-05-20T15:00:06.653Z,25.10
2023-05-20T15:02:56.213Z,25.20
2023-05-20T15:05:47.192Z,25.10
2023-05-20T15:08:36.983Z,25.00
2023-05-20T15:11:26.602Z,25.00
2023-05-20T15:14:16.370Z,25.00
2023-05-20T15:17:06.519Z,24.90
2023-05-20T15:19:56.154Z,25.00
2023-05-20T15:22:48.230Z,25.00
2023-05-20T15:25:37.760Z,25.00
2023-05-20T15:28:27.142Z,24.90
2023-05-20T15:31:16.680Z,24.90
2023-05-20T15:34:06.283Z,24.80
2023-05-20T15:36:56.051Z,24.70
2023-05-20T15:39:46.785Z,24.60
2023-05-20T15:42:36.243Z,24.60
2023-05-20T15:45:25.920Z,24.60
2023-05-20T15:48:15.583Z,24.60
2023-05-20T15:51:05.402Z,24.60
2023-05-20T15:53:54.774Z,24.60
2023-05-20T15:56:45.552Z,24.60
2023-05-20T15:59:35.029Z,24.60
2023-05-20T16:02:24.930Z,24.60
2023-05-20T16:05:14.977Z,24.60
2023-05-20T16:08:04.450Z,24.60
2023-05-20T16:10:54.740Z,24.60
2023-05-20T16:13:45.674Z,24.60
2023-05-20T16:16:36.178Z,24.70
2023-05-20T16:19:25.836Z,24.70
2023-05-20T16:22:16.327Z,24.70
2023-05-20T16:25:06.700Z,24.70
2023-05-20T16:27:57.450Z,24.70
2023-05-20T16:30:48.205Z,24.70
2023-05-20T16:33:37.900Z,24.70
2023-05-20T16:36:27.555Z,24.70
2023-05-20T16:39:17.476Z,24.70
2023-05-20T16:42:09.002Z,24.70
2023-05-20T16:44:58.470Z,24.70
2023-05-20T16:47:49.295Z,24.70
2023-05-20T16:50:38.707Z,24.70
2023-05-20T16:53:28.087Z,24.60
2023-05-20T16:56:17.535Z,24.50
2023-05-20T16:59:07.350Z,24.40
2023-05-20T17:01:56.801Z,24.30
2023-05-20T17:04:47.790Z,24.20
2023-05-20T17:07:38.340Z,24.10
2023-05-20T17:10:28.923Z,24.00
2023-05-20T17:13:18.481Z,23.90
2023-05-20T17:16:10.039Z,23.80
2023-05-20T17:18:59.819Z,23.80
2023-05-20T17:21:50.899Z,23.70
2023-05-20T17:24:40.360Z,23.60
2023-05-20T17:27:29.945Z,23.50
2023-05-20T17:30:19.427Z,23.50
2023-05-20T17:33:09.063Z,23.40
2023-05-20T17:35:58.629Z,23.30
2023-05-20T17:38:49.399Z,23.20
2023-05-20T17:41:38.980Z,23.20
2023-05-20T17:44:28.407Z,23.10
2023-05-20T17:47:18.111Z,23.00
2023-05-20T17:50:10.172Z,22.90
2023-05-20T17:52:59.610Z,22.80
2023-05-20T17:55:50.517Z,22.70
2023-05-20T17:58:39.910Z,22.70
2023-05-20T18:01:29.671Z,22.60
2023-05-20T18:04:20.035Z,22.50
2023-05-20T18:07:09.622Z,22.40
2023-05-20T18:09:59.166Z,22.30
2023-05-20T18:12:50.011Z,22.30
2023-05-20T18:15:39.512Z,22.20
2023-05-20T18:18:28.993Z,22.20
2023-05-20T18:21:18.417Z,22.10
2023-05-20T18:24:08.407Z,22.00
2023-05-20T18:26:58.557Z,22.00
2023-05-20T18:29:50.099Z,21.90
2023-05-20T18:32:39.516Z,21.80
2023-05-20T18:35:29.117Z,21.70
2023-05-20T18:38:18.569Z,21.70
2023-05-20T18:41:07.947Z,21.60
2023-05-20T18:43:57.273Z,21.50
2023-05-20T18:46:48.067Z,21.40
2023-05-20T18:49:37.487Z,21.30
2023-05-20T18:52:26.858Z,21.20
2023-05-20T18:55:16.615Z,21.20
2023-05-20T18:58:06.591Z,21.10
2023-05-20T19:00:56.774Z,21.00
2023-05-20T19:03:47.493Z,20.90
2023-05-20T19:06:37.618Z,20.90
2023-05-20T19:09:27.098Z,20.80
2023-05-20T19:12:16.680Z,20.70
2023-05-20T19:15:07.690Z,20.70
2023-05-20T19:17:57.255Z,20.60
2023-05-20T19:20:48.078Z,20.50
2023-05-20T19:23:37.577Z,20.40
2023-05-20T19:26:27.226Z,20.30
2023-05-20T19:29:16.855Z,20.30
2023-05-20T19:32:07.299Z,20.20
2023-05-20T19:34:56.837Z,20.20
2023-05-20T19:37:47.588Z,20.10
2023-05-20T19:40:37.163Z,20.10
2023-05-20T19:43:26.662Z,20.00
2023-05-20T19:46:16.976Z,20.00
2023-05-20T19:49:06.422Z,19.90
2023-05-20T19:51:55.969Z,19.80
2023-05-20T19:54:47.820Z,19.80
2023-05-20T19:57:38.596Z,19.70
2023-05-20T20:00:28.372Z,19.60
2023-05-20T20:03:17.954Z,19.50
2023-05-20T20:06:07.508Z,19.50
2023-05-20T20:08:57.087Z,19.40
2023-05-20T20:11:48.018Z,19.30
2023-05-20T20:14:38.121Z,19.30
2023-05-20T20:17:27.629Z,19.20
2023-05-20T20:20:17.119Z,19.10
2023-05-20T20:23:07.428Z,19.10
2023-05-20T20:25:56.833Z,19.00
2023-05-20T20:28:47.762Z,19.00
2023-05-20T20:31:37.914Z,18.90
2023-05-20T20:34:27.446Z,18.90
2023-05-20T20:37:17.358Z,18.80
2023-05-20T20:40:13.245Z,18.80
2023-05-20T20:43:04.876Z,18.80
2023-05-20T20:45:56.291Z,18.80
2023-05-20T20:48:46.904Z,18.70
2023-05-20T20:51:36.273Z,18.70
2023-05-20T20:54:26.462Z,18.60
2023-05-20T20:57:15.956Z,18.60
2023-05-20T21:00:15.989Z,18.60
2023-05-20T21:03:08.044Z,18.60
2023-05-20T21:05:57.628Z,18.50
2023-05-20T21:08:47.924Z,18.50
2023-05-20T21:11:38.312Z,18.40
2023-05-20T21:14:28.347Z,18.40
2023-05-20T21:17:17.732Z,18.40
2023-05-20T21:20:10.533Z,18.30
2023-05-20T21:22:59.871Z,18.30
2023-05-20T21:25:49.861Z,18.20
2023-05-20T21:28:39.355Z,18.20
2023-05-20T21:31:28.990Z,18.10
2023-05-20T21:34:18.354Z,18.10
2023-05-20T21:37:09.153Z,18.10
2023-05-20T21:39:58.522Z,18.00
2023-05-20T21:42:48.923Z,18.00
2023-05-20T21:45:38.539Z,18.00
2023-05-20T21:48:28.119Z,18.00
2023-05-20T21:51:17.671Z,18.00
2023-05-20T21:54:08.524Z,17.90
2023-05-20T21:56:57.926Z,17.90
2023-05-20T21:59:47.331Z,17.90
2023-05-20T22:02:37.024Z,17.90
2023-05-20T22:05:26.448Z,17.90
2023-05-20T22:08:16.984Z,17.90
2023-05-20T22:11:07.902Z,17.90
2023-05-20T22:13:57.322Z,17.90
2023-05-20T22:16:48.539Z,17.80
2023-05-20T22:19:37.978Z,17.80
2023-05-20T22:22:28.128Z,17.80
2023-05-20T22:25:18.101Z,17.70
2023-05-20T22:28:09.380Z,17.80
2023-05-20T22:30:58.984Z,17.70
2023-05-20T22:33:48.512Z,17.70
2023-05-20T22:36:38.502Z,17.70
2023-05-20T22:39:27.904Z,17.70
2023-05-20T22:42:17.274Z,17.60
2023-05-20T22:45:10.114Z,17.70
2023-05-20T22:47:59.486Z,17.60
2023-05-20T22:50:48.871Z,17.60
2023-05-20T22:53:38.360Z,17.60
2023-05-20T22:56:27.796Z,17.60
2023-05-20T22:59:17.255Z,17.50
2023-05-20T23:02:08.189Z,17.50
2023-05-20T23:04:57.754Z,17.40
2023-05-20T23:07:47.362Z,17.50
2023-05-20T23:10:36.788Z,17.40
2023-05-20T23:13:26.208Z,17.50
2023-05-20T23:16:15.567Z,17.40
2023-05-20T23:19:06.398Z,17.40
2023-05-20T23:21:55.756Z,17.30
2023-05-20T23:24:45.208Z,17.30
2023-05-20T23:27:34.732Z,17.30
2023-05-20T23:30:24.307Z,17.30
2023-05-20T23:33:14.966Z,17.30
2023-05-20T23:36:09.743Z,17.40
2023-05-20T23:38:59.158Z,17.40
2023-05-20T23:41:50.479Z,17.40
2023-05-20T23:44:39.948Z,17.50
2023-05-20T23:47:30.176Z,17.50
2023-05-20T23:50:19.688Z,17.60
2023-05-20T23:53:10.743Z,17.70
2023-05-20T23:56:00.224Z,17.70
2023-05-20T23:58:49.672Z,17.80
